VTSS/HDY METAR and TAF weather

Enter ICAO airport designator
Station Type Date Time Source
VTSS METAR 2020/03/28 14:00 UTC NOAA

VTSS 281400Z 29003KT 280V080 9999 SCT020 28/25 Q1009 NOSIG


Station Type Date Time Source
VTSS Decoded METAR 2020/03/28 14:00 UTC NOAA

Hat Yai, Thailand (VTSS) 06-55N 100-26E 35M
Mar 28, 2020 - 10:00 AM EDT / 2020.03.28 1400 UTC
Wind: from the WNW (290 degrees) at 3 MPH (3 KT) (direction variable):0
Visibility: greater than 7 mile(s):0
Sky conditions: partly cloudy
Temperature: 82 F (28 C)
Dew Point: 77 F (25 C)
Relative Humidity: 83%
Pressure (altimeter): 29.80 in. Hg (1009 hPa)
ob: VTSS 281400Z 29003KT 280V080 9999 SCT020 28/25 Q1009 NOSIG
cycle: 14

Station Type Date Time Source
VTSS TAF 2020/03/28 12:37 UTC NOAA

TAF VTSS 281100Z 2812/2912 07008KT 9999 FEW020

Example: see airport list